Accueil
METAR-TAF:

METAR-TAF

Aéroports :

Maputo, Mozambique

Aéroport international de Maputo

latitude: 25-55S, longitude: 032-34E, altitude: 39 m

Observation

Le bulletin a été fait il y a 23 minutes, à 20:00 UTC
Vent 3 kt de est/nord-est
Température 22°C
Humidité 83%
Pression 1016 hPa
Visibilité 10 km ou plus
pas de nuages en-dessous de 1500 mètres et pas de cumulonimbus.

METAR: FQMA 222000Z 06003KT CAVOK 22/19 Q1016 NOSIG

Heure: 22:23 (20:23 UTC)

Prévision

Le bulletin a été fait il y a 40 heures et 23 minutes, à 04:00 UTC
Prévision valable du 21 à 06 UTC au 22 à 12 UTC
Vent 8 kt de sud-ouest
Visibilité 10 km ou plus
Nuages fragmentés à une hauteur de 2000 ft
Evoluant progressivement
du 21 à 12 UTC au 21 à 14 UTC
Vent 12 kt de sud/sud-est
Evoluant progressivement
du 21 à 20 UTC au 21 à 22 UTC
Vent 8 kt de sud-ouest

TAF: FQMA 210400Z 2106/2212 23008KT 9999 BKN020 BECMG 2112/2114 15012KT BECMG 2120/2122 22008KT TX29/2113Z TN25/2203Z

Observations et prévisions météorologiques de plus de 4000 aéroports (messages METAR et TAF).

Les stations disponibles sont représentées par des disques jaunes et rouges sur la carte.

Passer la souris dessus pour voir le nom de la station.

Cliquer dessus pour voir les observations et prévisions météorologiques.

Pour changer de carte: cliquez sur les boutons verts avec une croix noire pour zoomer, sur le bouton vert avec un tiret pour effectuer un zoom arrière, ou sur les flèches vertes pour les cartes adjacentes.


METAR-TAF: